Time;durP1;ratioP1;P1;durP2;ratioP2;P2;SDS_P1;SDS_P2;PMS_P1;PMS_P2;Temp;Humidity;BMP_temperature;BMP_pressure;BME280_temperature;BME280_humidity;BME280_pressure;Samples;Min_cycle;Max_cycle;Signal;HPM_P1;HPM_P2
2023/01/29 00:00:09;;;;;;;;;;;16.50;47.50;;;;;;5097010;28;19919;-87
2023/01/29 00:02:35;;;;;;;;;;;16.50;47.50;;;;;;5097013;28;19943;-87
2023/01/29 00:05:01;;;;;;;;;;;16.40;47.50;;;;;;5079338;28;19908;-87
2023/01/29 00:07:26;;;;;;;;;;;16.40;47.50;;;;;;5114157;28;20285;-87
2023/01/29 00:09:55;;;;;;;;;;;16.40;47.50;;;;;;5114213;28;19918;-87
2023/01/29 00:12:20;;;;;;;;;;;16.30;47.50;;;;;;5112881;28;19982;-87
2023/01/29 00:14:46;;;;;;;;;;;16.30;47.60;;;;;;5097310;28;20285;-87
2023/01/29 00:17:11;;;;;;;;;;;16.30;47.60;;;;;;5115261;28;19907;-87
2023/01/29 00:19:37;;;;;;;;;;;16.20;47.60;;;;;;5079818;28;19967;-87
2023/01/29 00:22:03;;;;;;;;;;;16.20;47.60;;;;;;5114305;28;19912;-87
2023/01/29 00:24:28;;;;;;;;;;;16.20;47.70;;;;;;5080038;28;19912;-87
2023/01/29 00:26:54;;;;;;;;;;;16.10;47.70;;;;;;5113250;28;20077;-87
2023/01/29 00:29:22;;;;;;;;;;;16.10;47.70;;;;;;5112862;28;19919;-87
2023/01/29 00:31:48;;;;;;;;;;;16.00;47.70;;;;;;5078960;28;20265;-87
2023/01/29 00:34:13;;;;;;;;;;;16.00;47.80;;;;;;5112741;28;19916;-86
2023/01/29 00:36:44;;;;;;;;;;;15.90;47.80;;;;;;5112331;28;19918;-86
2023/01/29 00:39:09;;;;;;;;;;;15.90;47.90;;;;;;5112838;28;19981;-87
2023/01/29 00:47:29;;;;;;;;;;;15.80;48.00;;;;;;5095947;28;19995;-86
2023/01/29 00:49:53;;;;;;;;;;;15.70;48.00;;;;;;5095091;28;19916;-87
2023/01/29 00:52:25;;;;;;;;;;;15.70;48.10;;;;;;5111061;28;19908;-87
2023/01/29 00:54:52;;;;;;;;;;;15.60;48.10;;;;;;5111554;28;19908;-87
2023/01/29 00:57:17;;;;;;;;;;;15.60;48.10;;;;;;5078604;28;20269;-87
2023/01/29 00:59:43;;;;;;;;;;;15.50;48.10;;;;;;5077373;28;19920;-87
2023/01/29 01:04:56;;;;;;;;;;;15.40;48.30;;;;;;5097220;28;19934;-87
2023/01/29 01:07:21;;;;;;;;;;;15.40;48.30;;;;;;5096600;28;19908;-87
2023/01/29 01:12:32;;;;;;;;;;;15.30;48.40;;;;;;5096014;28;19923;-87
2023/01/29 01:15:00;;;;;;;;;;;15.30;48.30;;;;;;5077508;28;19916;-87
2023/01/29 01:17:26;;;;;;;;;;;15.40;48.20;;;;;;5095938;28;19908;-87
2023/01/29 01:19:51;;;;;;;;;;;15.50;48.10;;;;;;5095268;28;19973;-87
2023/01/29 01:22:17;;;;;;;;;;;15.50;48.00;;;;;;5076544;28;19920;-86
2023/01/29 01:24:43;;;;;;;;;;;15.50;48.00;;;;;;5076727;28;19954;-87
2023/01/29 01:27:08;;;;;;;;;;;15.50;47.90;;;;;;5112593;28;19918;-87
2023/01/29 01:29:34;;;;;;;;;;;15.50;47.80;;;;;;5079330;28;19908;-87
2023/01/29 01:32:00;;;;;;;;;;;15.50;47.80;;;;;;5114007;28;19934;-86
2023/01/29 01:34:26;;;;;;;;;;;15.50;47.90;;;;;;5069008;28;19970;-86
2023/01/29 01:36:52;;;;;;;;;;;15.50;47.90;;;;;;5076530;28;20209;-86
2023/01/29 01:39:17;;;;;;;;;;;15.50;47.90;;;;;;5078109;28;20205;-87
2023/01/29 01:41:43;;;;;;;;;;;15.40;47.80;;;;;;5110585;28;20239;-87
2023/01/29 01:44:28;;;;;;;;;;;15.40;47.80;;;;;;5076014;28;19967;-87
2023/01/29 01:46:59;;;;;;;;;;;15.40;47.80;;;;;;5095786;28;19909;-87
2023/01/29 01:49:24;;;;;;;;;;;15.30;47.80;;;;;;5078249;28;19965;-87
2023/01/29 01:51:51;;;;;;;;;;;15.30;47.90;;;;;;5111477;28;19908;-87
2023/01/29 01:54:45;;;;;;;;;;;15.30;48.00;;;;;;5078379;28;19919;-87
2023/01/29 01:57:17;;;;;;;;;;;15.20;47.90;;;;;;5112005;28;20269;-87
2023/01/29 01:59:45;;;;;;;;;;;15.20;48.00;;;;;;5079909;28;19914;-86
2023/01/29 02:10:44;;;;;;;;;;;15.00;48.20;;;;;;5092783;28;19980;-86
2023/01/29 02:13:11;;;;;;;;;;;15.00;48.20;;;;;;5075264;28;19937;-86
2023/01/29 02:15:40;;;;;;;;;;;15.10;48.10;;;;;;5073310;28;19909;-86
2023/01/29 02:18:09;;;;;;;;;;;15.10;47.90;;;;;;5108606;28;20348;-86
2023/01/29 02:20:34;;;;;;;;;;;15.20;47.90;;;;;;5092420;28;19916;-86
2023/01/29 02:23:26;;;;;;;;;;;15.20;47.80;;;;;;5075338;28;19990;-86
2023/01/29 02:25:51;;;;;;;;;;;15.30;47.70;;;;;;5074264;28;19908;-86
2023/01/29 02:28:23;;;;;;;;;;;15.30;47.70;;;;;;5093162;28;19962;-86
2023/01/29 02:30:54;;;;;;;;;;;15.30;47.70;;;;;;5075144;28;19908;-86
2023/01/29 02:33:38;;;;;;;;;;;15.30;47.70;;;;;;5091926;28;19923;-86
2023/01/29 02:36:23;;;;;;;;;;;15.20;47.60;;;;;;5092766;28;19919;-86
2023/01/29 02:39:14;;;;;;;;;;;15.20;47.60;;;;;;5108502;28;19927;-86
2023/01/29 02:41:47;;;;;;;;;;;15.20;47.60;;;;;;5072404;28;19915;-86
2023/01/29 02:44:22;;;;;;;;;;;15.20;47.60;;;;;;5094243;28;20331;-86
2023/01/29 02:47:08;;;;;;;;;;;15.10;47.70;;;;;;5077922;28;20206;-86
2023/01/29 02:49:33;;;;;;;;;;;15.10;47.70;;;;;;5076625;28;20168;-87
2023/01/29 02:52:20;;;;;;;;;;;15.00;47.70;;;;;;5112021;28;19908;-87
2023/01/29 02:55:01;;;;;;;;;;;15.00;47.70;;;;;;5077556;28;19919;-87
2023/01/29 02:57:33;;;;;;;;;;;15.00;47.80;;;;;;5095496;28;19915;-87
2023/01/29 03:00:01;;;;;;;;;;;14.90;47.80;;;;;;5077586;28;20185;-87
2023/01/29 03:02:36;;;;;;;;;;;14.90;47.80;;;;;;5076564;28;20236;-87
2023/01/29 03:05:04;;;;;;;;;;;14.90;47.80;;;;;;5076753;28;19908;-87
2023/01/29 03:07:39;;;;;;;;;;;14.80;47.80;;;;;;5076011;28;20007;-86
2023/01/29 03:10:15;;;;;;;;;;;14.80;47.90;;;;;;5076582;28;20261;-86
2023/01/29 03:12:42;;;;;;;;;;;14.70;47.90;;;;;;5076412;28;19912;-86
2023/01/29 03:15:12;;;;;;;;;;;14.80;47.90;;;;;;5077615;28;19920;-86
2023/01/29 03:17:50;;;;;;;;;;;14.80;47.80;;;;;;5094726;28;19943;-87
2023/01/29 03:20:17;;;;;;;;;;;15.00;47.70;;;;;;5077765;28;19919;-86
2023/01/29 03:22:46;;;;;;;;;;;15.00;47.50;;;;;;5078563;28;19916;-87
2023/01/29 03:33:46;;;;;;;;;;;15.00;47.30;;;;;;5099511;28;20221;-87
2023/01/29 03:36:21;;;;;;;;;;;15.00;47.30;;;;;;5081508;28;19908;-87
2023/01/29 03:38:47;;;;;;;;;;;15.00;47.30;;;;;;5099577;28;19916;-87
2023/01/29 03:41:21;;;;;;;;;;;15.00;47.40;;;;;;5082218;28;19919;-87
2023/01/29 03:43:51;;;;;;;;;;;14.90;47.50;;;;;;5116273;28;20281;-86
2023/01/29 03:46:30;;;;;;;;;;;14.80;47.50;;;;;;5116719;28;20174;-86
2023/01/29 03:49:07;;;;;;;;;;;14.80;47.60;;;;;;5100078;28;19922;-87
2023/01/29 03:51:33;;;;;;;;;;;14.70;47.60;;;;;;5081929;28;19908;-86
2023/01/29 03:53:58;;;;;;;;;;;14.60;47.70;;;;;;5081610;28;19924;-86
2023/01/29 03:56:24;;;;;;;;;;;14.50;47.80;;;;;;5081928;28;19912;-87
2023/01/29 03:59:01;;;;;;;;;;;14.40;47.80;;;;;;5082433;28;19912;-87
2023/01/29 04:01:41;;;;;;;;;;;14.40;47.90;;;;;;5099109;28;20007;-87
2023/01/29 04:04:16;;;;;;;;;;;14.30;47.90;;;;;;5081928;28;20169;-87
2023/01/29 04:06:43;;;;;;;;;;;14.30;48.10;;;;;;5114761;28;19920;-86
2023/01/29 04:09:21;;;;;;;;;;;14.20;48.10;;;;;;5115034;28;20002;-86
2023/01/29 04:11:56;;;;;;;;;;;14.40;48.10;;;;;;5115147;28;19923;-87
2023/01/29 04:14:22;;;;;;;;;;;15.50;46.90;;;;;;5115209;28;20212;-87
2023/01/29 04:16:50;;;;;;;;;;;16.00;46.30;;;;;;5081367;28;20020;-87
2023/01/29 04:19:19;;;;;;;;;;;16.20;45.90;;;;;;5097750;28;20118;-87
2023/01/29 04:21:46;;;;;;;;;;;16.40;45.60;;;;;;5113880;28;20244;-86
2023/01/29 04:24:12;;;;;;;;;;;16.60;45.40;;;;;;5079505;28;19908;-87
2023/01/29 04:26:41;;;;;;;;;;;16.80;45.20;;;;;;5113945;28;19915;-87
2023/01/29 04:29:28;;;;;;;;;;;17.10;44.90;;;;;;5079324;28;19908;-87
2023/01/29 04:31:57;;;;;;;;;;;17.30;44.70;;;;;;5097738;28;19909;-86
2023/01/29 04:34:25;;;;;;;;;;;17.60;44.40;;;;;;5081319;28;19989;-86
2023/01/29 04:36:51;;;;;;;;;;;17.80;44.20;;;;;;5081275;28;19973;-87
2023/01/29 04:39:19;;;;;;;;;;;17.90;44.00;;;;;;5098278;28;20137;-87
2023/01/29 04:41:51;;;;;;;;;;;18.10;43.90;;;;;;5098698;28;19908;-87
2023/01/29 04:44:32;;;;;;;;;;;18.30;43.70;;;;;;5080357;28;19908;-87
2023/01/29 04:46:57;;;;;;;;;;;18.50;43.50;;;;;;5114974;28;19912;-87
2023/01/29 04:49:45;;;;;;;;;;;18.60;43.30;;;;;;5081540;28;19935;-87
2023/01/29 04:52:11;;;;;;;;;;;18.70;43.20;;;;;;5114360;28;20057;-86
2023/01/29 04:54:39;;;;;;;;;;;18.80;43.10;;;;;;5080260;28;20007;-86
2023/01/29 04:57:13;;;;;;;;;;;18.80;43.10;;;;;;5078841;28;19916;-87
2023/01/29 04:59:46;;;;;;;;;;;18.80;43.10;;;;;;5113574;28;20264;-87
2023/01/29 05:02:12;;;;;;;;;;;18.90;43.00;;;;;;5112227;28;19908;-87
2023/01/29 05:04:39;;;;;;;;;;;19.10;43.00;;;;;;5109968;28;19969;-87
2023/01/29 05:07:06;;;;;;;;;;;19.20;42.90;;;;;;5110110;28;20304;-87
2023/01/29 05:09:33;;;;;;;;;;;19.20;42.80;;;;;;5111549;28;19954;-87
2023/01/29 05:11:59;;;;;;;;;;;19.20;42.80;;;;;;5111157;28;20292;-87
2023/01/29 05:14:29;;;;;;;;;;;19.20;42.80;;;;;;5078002;28;19923;-87
2023/01/29 05:17:00;;;;;;;;;;;19.20;42.80;;;;;;5112517;28;19973;-87
2023/01/29 05:19:26;;;;;;;;;;;19.20;42.90;;;;;;5096580;28;19912;-86
2023/01/29 05:21:51;;;;;;;;;;;19.10;42.90;;;;;;5079840;28;19920;-86
2023/01/29 05:24:18;;;;;;;;;;;19.00;43.00;;;;;;5114188;28;19907;-86
2023/01/29 05:29:30;;;;;;;;;;;18.80;43.20;;;;;;5097584;28;20193;-86
2023/01/29 05:31:59;;;;;;;;;;;18.60;43.40;;;;;;5113813;28;20006;-87
2023/01/29 05:34:24;;;;;;;;;;;18.50;43.50;;;;;;5097184;28;19946;-87
2023/01/29 05:36:50;;;;;;;;;;;18.40;43.70;;;;;;5098131;28;19923;-86
2023/01/29 05:39:16;;;;;;;;;;;18.30;43.80;;;;;;5097859;28;19981;-87
2023/01/29 05:41:41;;;;;;;;;;;18.20;43.90;;;;;;5113922;28;20398;-86
2023/01/29 05:44:08;;;;;;;;;;;18.10;43.90;;;;;;5112655;28;19909;-87
2023/01/29 05:46:34;;;;;;;;;;;18.00;44.10;;;;;;5112280;28;19991;-87
2023/01/29 05:49:00;;;;;;;;;;;17.90;44.20;;;;;;5113414;28;20007;-87
2023/01/29 05:51:26;;;;;;;;;;;17.80;44.20;;;;;;5113080;28;19904;-86
2023/01/29 05:53:52;;;;;;;;;;;17.80;44.20;;;;;;5112263;28;19923;-86
2023/01/29 05:56:17;;;;;;;;;;;17.80;44.20;;;;;;5112112;28;19912;-87
2023/01/29 05:58:43;;;;;;;;;;;17.90;44.20;;;;;;5111956;28;20065;-87
2023/01/29 06:01:09;;;;;;;;;;;18.00;44.10;;;;;;5111234;28;19908;-86
2023/01/29 06:03:34;;;;;;;;;;;18.10;44.00;;;;;;5078063;28;19916;-86
2023/01/29 06:06:03;;;;;;;;;;;18.10;43.90;;;;;;5095774;28;19919;-87
2023/01/29 06:08:31;;;;;;;;;;;18.20;43.90;;;;;;5096566;28;19915;-87
2023/01/29 06:11:00;;;;;;;;;;;18.30;43.70;;;;;;5095916;28;19912;-87
2023/01/29 06:13:25;;;;;;;;;;;18.50;43.60;;;;;;5112662;28;20351;-87
2023/01/29 06:15:51;;;;;;;;;;;18.60;43.50;;;;;;5078663;28;19939;-87
2023/01/29 06:18:16;;;;;;;;;;;18.70;43.40;;;;;;5112354;28;19919;-87
2023/01/29 06:20:42;;;;;;;;;;;18.70;43.30;;;;;;5110975;28;19969;-87
2023/01/29 06:23:11;;;;;;;;;;;18.70;43.30;;;;;;5077555;28;20312;-87
2023/01/29 06:25:36;;;;;;;;;;;18.80;43.40;;;;;;5111499;28;20446;-87
2023/01/29 06:28:02;;;;;;;;;;;18.80;43.30;;;;;;5111450;28;20003;-87
2023/01/29 06:30:28;;;;;;;;;;;18.90;43.30;;;;;;5076556;28;20018;-86
2023/01/29 06:33:02;;;;;;;;;;;18.90;43.20;;;;;;5110733;28;19912;-87
2023/01/29 06:35:31;;;;;;;;;;;18.90;43.10;;;;;;5110254;28;19914;-87
2023/01/29 06:37:56;;;;;;;;;;;18.90;43.10;;;;;;5110428;28;20349;-87
2023/01/29 06:40:22;;;;;;;;;;;18.90;43.10;;;;;;5110293;28;20238;-87
2023/01/29 06:42:47;;;;;;;;;;;18.90;43.20;;;;;;5109752;28;19968;-87
2023/01/29 06:45:13;;;;;;;;;;;18.80;43.20;;;;;;5109419;28;20019;-86
2023/01/29 06:47:39;;;;;;;;;;;18.80;43.20;;;;;;5109825;28;19916;-86
2023/01/29 06:50:04;;;;;;;;;;;18.80;43.20;;;;;;5074674;28;19954;-87
2023/01/29 06:52:30;;;;;;;;;;;18.80;43.60;;;;;;5108752;28;19920;-87
2023/01/29 06:54:56;;;;;;;;;;;18.80;43.30;;;;;;5109866;28;19912;-87
2023/01/29 06:57:24;;;;;;;;;;;18.70;43.30;;;;;;5077187;28;20252;-87
2023/01/29 06:59:50;;;;;;;;;;;18.70;43.30;;;;;;5076950;28;20011;-87
2023/01/29 07:02:16;;;;;;;;;;;18.70;43.20;;;;;;5110969;28;20006;-87
2023/01/29 07:04:45;;;;;;;;;;;18.70;43.20;;;;;;5110651;28;19908;-86
2023/01/29 07:07:12;;;;;;;;;;;18.70;43.20;;;;;;5076794;28;20002;-86
2023/01/29 07:09:41;;;;;;;;;;;18.70;43.30;;;;;;5110641;28;19915;-86
2023/01/29 07:12:07;;;;;;;;;;;18.60;43.20;;;;;;5109822;28;19915;-86
2023/01/29 07:14:33;;;;;;;;;;;18.60;43.20;;;;;;5109149;28;20297;-86
2023/01/29 07:16:58;;;;;;;;;;;18.60;43.20;;;;;;5094390;28;20051;-87
2023/01/29 07:19:24;;;;;;;;;;;18.70;43.20;;;;;;5109600;28;19968;-87
2023/01/29 07:21:49;;;;;;;;;;;18.80;43.10;;;;;;5110910;28;19916;-87
2023/01/29 07:24:15;;;;;;;;;;;18.80;43.10;;;;;;5108662;28;19912;-87
2023/01/29 07:26:41;;;;;;;;;;;18.80;43.20;;;;;;5075395;28;19920;-86
2023/01/29 07:29:07;;;;;;;;;;;18.70;43.10;;;;;;5109097;28;19994;-86
2023/01/29 07:31:35;;;;;;;;;;;18.70;43.20;;;;;;5108375;28;19915;-86
2023/01/29 07:34:04;;;;;;;;;;;18.60;43.20;;;;;;5110648;28;19947;-86
2023/01/29 07:36:29;;;;;;;;;;;18.60;43.20;;;;;;5074771;28;19915;-86
2023/01/29 07:38:55;;;;;;;;;;;18.60;43.30;;;;;;5110941;28;19916;-87
2023/01/29 07:41:21;;;;;;;;;;;18.50;43.20;;;;;;5109832;28;20193;-86
2023/01/29 07:43:46;;;;;;;;;;;18.50;43.30;;;;;;5108744;28;19927;-86
2023/01/29 07:46:12;;;;;;;;;;;18.50;43.40;;;;;;5110000;28;19919;-86
2023/01/29 07:48:38;;;;;;;;;;;18.40;43.40;;;;;;5074818;28;19908;-86
2023/01/29 07:51:04;;;;;;;;;;;18.40;43.40;;;;;;5108276;28;19916;-86
2023/01/29 07:53:32;;;;;;;;;;;18.40;43.40;;;;;;5107622;28;19923;-86
2023/01/29 07:55:57;;;;;;;;;;;18.40;43.40;;;;;;5091268;28;20297;-86
2023/01/29 07:58:23;;;;;;;;;;;18.40;43.40;;;;;;5090662;28;19908;-86
2023/01/29 08:00:52;;;;;;;;;;;18.40;43.40;;;;;;5106117;28;19915;-86
2023/01/29 08:03:18;;;;;;;;;;;18.40;43.40;;;;;;5091311;28;19916;-86
2023/01/29 08:05:44;;;;;;;;;;;18.50;43.30;;;;;;5073999;28;19908;-86
2023/01/29 08:08:10;;;;;;;;;;;18.50;43.30;;;;;;5107109;28;20259;-86
2023/01/29 08:10:36;;;;;;;;;;;18.50;43.30;;;;;;5106587;28;19915;-86
2023/01/29 08:13:02;;;;;;;;;;;18.50;43.20;;;;;;5091959;28;19977;-86
2023/01/29 08:15:28;;;;;;;;;;;18.50;43.30;;;;;;5076346;28;19908;-86
2023/01/29 08:17:54;;;;;;;;;;;18.40;43.30;;;;;;5076091;28;19908;-86
2023/01/29 08:20:20;;;;;;;;;;;18.30;43.40;;;;;;5111181;28;20152;-86
2023/01/29 08:22:46;;;;;;;;;;;18.20;43.50;;;;;;5077328;28;20162;-86
2023/01/29 08:25:12;;;;;;;;;;;18.10;43.60;;;;;;5075388;28;19970;-86
2023/01/29 08:27:38;;;;;;;;;;;18.00;43.70;;;;;;5074929;28;19943;-86
2023/01/29 08:30:05;;;;;;;;;;;17.90;43.80;;;;;;5093118;28;20262;-86
2023/01/29 08:32:30;;;;;;;;;;;17.90;43.80;;;;;;5075921;28;19961;-86
2023/01/29 08:34:56;;;;;;;;;;;18.00;43.80;;;;;;5076815;28;20201;-87
2023/01/29 08:37:22;;;;;;;;;;;18.20;43.60;;;;;;5107865;28;19919;-87
2023/01/29 08:39:47;;;;;;;;;;;18.60;43.20;;;;;;5109590;28;19942;-87
2023/01/29 08:42:13;;;;;;;;;;;19.00;42.90;;;;;;5109284;28;20216;-87
2023/01/29 08:44:38;;;;;;;;;;;19.10;42.70;;;;;;5074426;28;19972;-86
2023/01/29 08:47:04;;;;;;;;;;;19.20;42.60;;;;;;5092408;28;19951;-86
2023/01/29 08:49:30;;;;;;;;;;;19.20;42.60;;;;;;5093473;28;19908;-86
2023/01/29 08:51:58;;;;;;;;;;;19.30;42.60;;;;;;5091383;28;19909;-87
2023/01/29 08:54:23;;;;;;;;;;;19.30;42.60;;;;;;5073700;28;19922;-87
2023/01/29 08:56:50;;;;;;;;;;;19.30;42.60;;;;;;5108268;28;19998;-87
2023/01/29 08:59:15;;;;;;;;;;;19.30;42.60;;;;;;5107550;28;19924;-87
2023/01/29 09:01:44;;;;;;;;;;;19.20;42.60;;;;;;5107727;28;20030;-87
2023/01/29 09:04:09;;;;;;;;;;;19.20;42.60;;;;;;5107783;28;20008;-86
2023/01/29 09:06:35;;;;;;;;;;;19.20;42.70;;;;;;5108105;28;19943;-86
2023/01/29 09:09:01;;;;;;;;;;;19.10;42.70;;;;;;5109477;28;19912;-86
2023/01/29 09:11:26;;;;;;;;;;;19.00;42.80;;;;;;5108967;28;20044;-87
2023/01/29 09:13:52;;;;;;;;;;;19.00;42.80;;;;;;5094361;28;19912;-87
2023/01/29 09:16:18;;;;;;;;;;;18.90;42.90;;;;;;5110031;28;20147;-87
2023/01/29 09:18:43;;;;;;;;;;;18.80;42.90;;;;;;5092044;28;20164;-87
2023/01/29 09:21:10;;;;;;;;;;;18.80;43.00;;;;;;5108454;28;19939;-87
2023/01/29 09:23:35;;;;;;;;;;;18.80;43.00;;;;;;5076028;28;19939;-87
2023/01/29 09:26:01;;;;;;;;;;;18.80;43.10;;;;;;5109141;28;19912;-87
2023/01/29 09:28:27;;;;;;;;;;;18.80;43.20;;;;;;5091384;28;19908;-87
2023/01/29 09:31:02;;;;;;;;;;;18.70;43.30;;;;;;5075643;28;20013;-88
2023/01/29 09:33:28;;;;;;;;;;;18.70;43.40;;;;;;5074582;28;19912;-87
2023/01/29 09:35:56;;;;;;;;;;;18.70;43.30;;;;;;5108174;28;20198;-87
2023/01/29 09:38:25;;;;;;;;;;;18.70;43.30;;;;;;5109162;28;19912;-87
2023/01/29 09:40:53;;;;;;;;;;;18.80;43.30;;;;;;5109443;28;20249;-87
2023/01/29 09:43:24;;;;;;;;;;;18.80;43.20;;;;;;5092267;28;20028;-87
2023/01/29 09:45:58;;;;;;;;;;;18.80;43.20;;;;;;5093996;28;19909;-87
2023/01/29 09:48:26;;;;;;;;;;;18.80;43.30;;;;;;5074255;28;19919;-86
2023/01/29 09:50:54;;;;;;;;;;;18.80;43.30;;;;;;5107230;28;20300;-87
2023/01/29 09:53:29;;;;;;;;;;;18.90;43.20;;;;;;5090802;28;20405;-87
2023/01/29 09:56:05;;;;;;;;;;;18.90;43.60;;;;;;5107639;28;20209;-87
2023/01/29 09:58:38;;;;;;;;;;;18.90;43.30;;;;;;5073351;28;19919;-87
2023/01/29 10:01:31;;;;;;;;;;;18.90;43.30;;;;;;5106911;28;19940;-86
2023/01/29 10:04:03;;;;;;;;;;;18.90;43.30;;;;;;5106228;28;19916;-86
2023/01/29 10:06:50;;;;;;;;;;;18.80;43.30;;;;;;5072380;28;19930;-86
2023/01/29 10:09:35;;;;;;;;;;;18.80;43.40;;;;;;5073200;28;19908;-86
2023/01/29 10:12:00;;;;;;;;;;;18.70;43.40;;;;;;5072816;28;19915;-86
2023/01/29 10:14:36;;;;;;;;;;;18.70;43.50;;;;;;5071668;28;19912;-86
2023/01/29 10:17:11;;;;;;;;;;;18.60;43.60;;;;;;5104662;28;19972;-86
2023/01/29 10:19:48;;;;;;;;;;;18.60;43.70;;;;;;5088486;28;19969;-87
2023/01/29 10:22:35;;;;;;;;;;;18.50;43.80;;;;;;5104540;28;20247;-86
2023/01/29 10:25:05;;;;;;;;;;;18.50;43.90;;;;;;5071951;28;19909;-86
2023/01/29 10:27:37;;;;;;;;;;;18.50;44.00;;;;;;5106455;28;19908;-86
2023/01/29 10:30:08;;;;;;;;;;;18.50;44.00;;;;;;5072259;28;19908;-86
2023/01/29 10:32:34;;;;;;;;;;;18.50;44.00;;;;;;5069146;28;20289;-86
2023/01/29 10:35:33;;;;;;;;;;;18.50;44.00;;;;;;5106229;28;19908;-86
2023/01/29 10:38:05;;;;;;;;;;;18.50;44.10;;;;;;5038944;28;19939;-86
2023/01/29 10:40:38;;;;;;;;;;;18.50;44.00;;;;;;5108557;28;19920;-86
2023/01/29 10:43:11;;;;;;;;;;;18.60;44.00;;;;;;5109717;28;20269;-87
2023/01/29 10:46:09;;;;;;;;;;;18.60;44.00;;;;;;5075303;28;19973;-87
2023/01/29 10:48:53;;;;;;;;;;;18.60;43.90;;;;;;5030303;28;19915;-87
2023/01/29 10:51:33;;;;;;;;;;;18.70;43.90;;;;;;5074939;28;19908;-87
2023/01/29 10:54:20;;;;;;;;;;;18.80;43.70;;;;;;5108245;28;19962;-86
2023/01/29 10:56:49;;;;;;;;;;;18.80;43.60;;;;;;5074857;28;19908;-86
2023/01/29 10:59:17;;;;;;;;;;;18.90;43.50;;;;;;5076071;28;20114;-86
2023/01/29 11:01:43;;;;;;;;;;;19.00;43.50;;;;;;5075368;28;20014;-86
2023/01/29 11:04:12;;;;;;;;;;;19.00;43.30;;;;;;5109186;28;20283;-87
2023/01/29 11:06:38;;;;;;;;;;;19.00;43.30;;;;;;5108139;28;20289;-87
2023/01/29 11:09:17;;;;;;;;;;;19.10;43.10;;;;;;5109710;28;19908;-86
2023/01/29 11:11:46;;;;;;;;;;;19.10;43.00;;;;;;5109452;28;19915;-86
2023/01/29 11:14:19;;;;;;;;;;;19.20;43.00;;;;;;5108738;28;19912;-86
2023/01/29 11:16:46;;;;;;;;;;;19.20;42.90;;;;;;5109186;28;20001;-86
2023/01/29 11:19:11;;;;;;;;;;;19.30;43.00;;;;;;5108991;28;19916;-86
2023/01/29 11:21:57;;;;;;;;;;;19.30;42.90;;;;;;5107901;28;19914;-85
2023/01/29 11:24:22;;;;;;;;;;;19.30;43.00;;;;;;5108704;28;20236;-86
2023/01/29 11:26:49;;;;;;;;;;;19.40;43.00;;;;;;5109834;28;20058;-85
2023/01/29 11:29:40;;;;;;;;;;;19.40;43.10;;;;;;5108937;28;19908;-85
2023/01/29 11:32:10;;;;;;;;;;;19.30;43.00;;;;;;5068240;28;20357;-86
2023/01/29 11:34:57;;;;;;;;;;;19.30;43.20;;;;;;5108567;28;20380;-84
2023/01/29 11:37:31;;;;;;;;;;;19.20;43.30;;;;;;5107169;28;19908;-83
2023/01/29 11:39:56;;;;;;;;;;;19.20;43.30;;;;;;5091537;28;19931;-83
2023/01/29 11:42:22;;;;;;;;;;;19.20;43.40;;;;;;5092548;28;19908;-83
2023/01/29 11:44:51;;;;;;;;;;;19.20;43.40;;;;;;5105959;28;20006;-83
2023/01/29 11:47:22;;;;;;;;;;;19.10;43.50;;;;;;5092860;28;20049;-83
2023/01/29 11:49:49;;;;;;;;;;;19.00;43.60;;;;;;5109191;28;19972;-82
2023/01/29 11:52:17;;;;;;;;;;;18.90;43.60;;;;;;5108547;28;19908;-83
2023/01/29 11:54:53;;;;;;;;;;;18.90;43.80;;;;;;5106694;28;19920;-84
2023/01/29 11:57:38;;;;;;;;;;;18.80;43.80;;;;;;5073669;28;20006;-83
2023/01/29 12:00:10;;;;;;;;;;;18.80;43.90;;;;;;5090441;28;20141;-83
2023/01/29 12:02:37;;;;;;;;;;;18.80;44.00;;;;;;5105370;28;19908;-83
2023/01/29 12:05:14;;;;;;;;;;;18.60;44.20;;;;;;5106368;28;19908;-84
2023/01/29 12:07:41;;;;;;;;;;;18.50;44.40;;;;;;5107811;28;19916;-83
2023/01/29 12:10:27;;;;;;;;;;;18.50;44.50;;;;;;5091663;28;20003;-84
2023/01/29 12:13:02;;;;;;;;;;;18.60;44.40;;;;;;5090413;28;19981;-83
2023/01/29 12:15:28;;;;;;;;;;;18.50;44.50;;;;;;5106329;28;20182;-83
2023/01/29 12:17:59;;;;;;;;;;;18.40;44.50;;;;;;5073634;28;19952;-83
2023/01/29 12:20:28;;;;;;;;;;;18.30;44.70;;;;;;5106705;28;20280;-83
2023/01/29 12:23:07;;;;;;;;;;;18.20;44.80;;;;;;5108649;28;19969;-84
2023/01/29 12:25:45;;;;;;;;;;;18.10;44.90;;;;;;5074723;28;19961;-84
2023/01/29 12:28:30;;;;;;;;;;;18.00;45.00;;;;;;5074904;28;20185;-81
2023/01/29 12:31:31;;;;;;;;;;;17.80;45.20;;;;;;5072379;28;19919;-82
2023/01/29 12:37:22;;;;;;;;;;;17.80;46.10;;;;;;5019853;28;19923;-15
2023/01/29 12:39:48;;;;;;;;;;;18.10;45.80;;;;;;5059226;28;19972;-17
2023/01/29 12:42:14;;;;;;;;;;;18.40;45.40;;;;;;5074939;28;19924;-17
2023/01/29 12:44:59;;;;;;;;;;;18.70;45.20;;;;;;5042263;28;19909;-15
2023/01/29 12:47:30;;;;;;;;;;;18.90;45.10;;;;;;5041402;28;19999;-16
2023/01/29 12:49:59;;;;;;;;;;;19.00;45.00;;;;;;5059364;28;19908;-15
2023/01/29 12:52:24;;;;;;;;;;;19.10;44.90;;;;;;5059828;28;19909;-14
2023/01/29 12:55:10;;;;;;;;;;;19.20;44.80;;;;;;5059473;28;19978;-15
2023/01/29 12:58:00;;;;;;;;;;;19.30;44.80;;;;;;5059099;28;20236;-16
2023/01/29 13:00:29;;;;;;;;;;;19.30;44.70;;;;;;5058964;28;19909;-16
2023/01/29 13:03:17;;;;;;;;;;;19.30;44.60;;;;;;5058587;28;19994;-17
2023/01/29 13:05:45;;;;;;;;;;;19.30;44.70;;;;;;5059526;28;19908;-16
2023/01/29 13:08:32;;;;;;;;;;;19.30;44.80;;;;;;5059607;28;19931;-18
2023/01/29 13:11:01;;;;;;;;;;;19.20;44.80;;;;;;5059276;28;20267;-17
2023/01/29 13:13:51;;;;;;;;;;;19.20;45.00;;;;;;5059416;28;19913;-15
2023/01/29 13:16:21;;;;;;;;;;;19.00;45.20;;;;;;5059900;28;19944;-16
2023/01/29 13:18:53;;;;;;;;;;;18.90;45.40;;;;;;5059304;28;19963;-17
2023/01/29 13:21:22;;;;;;;;;;;18.80;45.60;;;;;;5059042;28;19920;-15
2023/01/29 13:23:52;;;;;;;;;;;18.60;45.70;;;;;;5041284;28;19959;-17
2023/01/29 13:26:19;;;;;;;;;;;18.50;45.90;;;;;;5058160;28;19940;-15
2023/01/29 13:28:45;;;;;;;;;;;18.40;46.10;;;;;;5073111;28;19909;-16
2023/01/29 13:31:22;;;;;;;;;;;18.20;46.30;;;;;;5058283;28;19908;-15
2023/01/29 13:33:52;;;;;;;;;;;18.10;46.50;;;;;;5073938;28;20404;-17
2023/01/29 13:36:22;;;;;;;;;;;18.00;46.60;;;;;;5073982;28;19913;-17
2023/01/29 13:38:53;;;;;;;;;;;17.90;46.80;;;;;;5057658;28;20415;-15
2023/01/29 13:41:19;;;;;;;;;;;17.80;47.00;;;;;;5074314;28;19909;-17
2023/01/29 13:43:48;;;;;;;;;;;17.70;47.10;;;;;;5074198;28;19909;-15
2023/01/29 13:46:21;;;;;;;;;;;17.60;47.20;;;;;;5057829;28;20425;-18
2023/01/29 13:48:48;;;;;;;;;;;17.60;47.40;;;;;;5058656;28;19995;-13
2023/01/29 13:51:18;;;;;;;;;;;17.50;47.50;;;;;;5057456;28;20339;-15
2023/01/29 13:54:02;;;;;;;;;;;17.50;47.60;;;;;;5057928;28;19920;-18
2023/01/29 13:56:58;;;;;;;;;;;17.50;47.80;;;;;;5056621;28;19924;-16
2023/01/29 13:59:43;;;;;;;;;;;17.40;47.80;;;;;;5057242;28;19928;-16
2023/01/29 14:02:20;;;;;;;;;;;17.50;47.80;;;;;;5073197;28;20393;-18
2023/01/29 14:04:46;;;;;;;;;;;17.60;47.80;;;;;;5057345;28;20277;-19
2023/01/29 14:07:30;;;;;;;;;;;17.70;47.60;;;;;;5056693;28;19909;-19
2023/01/29 14:09:56;;;;;;;;;;;17.90;47.40;;;;;;5055522;28;19964;-19
2023/01/29 14:12:32;;;;;;;;;;;18.10;47.20;;;;;;5056864;28;19909;-17
2023/01/29 14:15:01;;;;;;;;;;;18.20;47.10;;;;;;5056929;28;19994;-16
2023/01/29 14:17:27;;;;;;;;;;;18.40;47.00;;;;;;5072505;28;19909;-20
2023/01/29 14:20:15;;;;;;;;;;;18.40;46.80;;;;;;5071853;28;19916;-17
2023/01/29 14:22:44;;;;;;;;;;;18.50;46.80;;;;;;5056267;28;19908;-17
2023/01/29 14:25:16;;;;;;;;;;;18.60;46.70;;;;;;5056345;28;19952;-17
2023/01/29 14:27:46;;;;;;;;;;;18.60;46.70;;;;;;5056014;28;19908;-15
2023/01/29 14:30:16;;;;;;;;;;;18.50;46.70;;;;;;5055502;28;19962;-17
2023/01/29 14:32:45;;;;;;;;;;;18.50;46.70;;;;;;5055173;28;20210;-16
2023/01/29 14:35:32;;;;;;;;;;;18.60;46.70;;;;;;5055769;28;19925;-17
2023/01/29 14:38:13;;;;;;;;;;;18.50;46.70;;;;;;5072609;28;19909;-15
2023/01/29 14:40:40;;;;;;;;;;;18.50;46.80;;;;;;5055982;28;20517;-18
2023/01/29 14:43:06;;;;;;;;;;;18.40;46.80;;;;;;5056169;28;20444;-17
2023/01/29 14:45:33;;;;;;;;;;;18.30;46.80;;;;;;5055927;28;19908;-17
2023/01/29 14:48:08;;;;;;;;;;;18.30;47.00;;;;;;5057135;28;19936;-16
2023/01/29 14:50:34;;;;;;;;;;;18.20;47.00;;;;;;5056399;28;19913;-15
2023/01/29 14:53:08;;;;;;;;;;;18.10;47.10;;;;;;5057001;28;20292;-16
2023/01/29 14:55:36;;;;;;;;;;;18.00;47.20;;;;;;5057697;28;19912;-18
2023/01/29 14:58:02;;;;;;;;;;;17.90;47.40;;;;;;5057105;28;19909;-19
2023/01/29 15:00:36;;;;;;;;;;;17.80;47.50;;;;;;5056686;28;19908;-16
2023/01/29 15:03:04;;;;;;;;;;;17.70;47.60;;;;;;5073114;28;19909;-18
2023/01/29 15:05:34;;;;;;;;;;;17.70;47.70;;;;;;5057238;28;19909;-16
2023/01/29 15:08:06;;;;;;;;;;;17.60;47.80;;;;;;5073345;28;19971;-17